createdAt,value
2024-01-20T00:10:24.502Z,83
2024-01-20T00:25:24.472Z,83
2024-01-20T00:40:24.451Z,84
2024-01-20T00:55:24.518Z,84
2024-01-20T01:10:24.444Z,84
2024-01-20T01:25:24.464Z,84
2024-01-20T01:40:24.445Z,84
2024-01-20T01:55:24.454Z,84
2024-01-20T02:10:24.412Z,84
2024-01-20T02:25:24.421Z,83
2024-01-20T02:40:24.359Z,83
2024-01-20T02:55:24.381Z,83
2024-01-20T03:10:24.432Z,83
2024-01-20T03:25:24.371Z,83
2024-01-20T03:40:24.417Z,83
2024-01-20T03:55:24.342Z,83
2024-01-20T04:10:24.544Z,83
2024-01-20T04:25:24.339Z,83
2024-01-20T04:40:24.382Z,84
2024-01-20T04:55:24.342Z,84
2024-01-20T05:10:24.402Z,84
2024-01-20T05:25:24.364Z,84
2024-01-20T05:40:24.376Z,84
2024-01-20T05:55:24.307Z,84
2024-01-20T06:10:24.401Z,84
2024-01-20T06:25:24.366Z,84
2024-01-20T06:40:24.504Z,84
2024-01-20T06:55:24.314Z,84
2024-01-20T07:10:24.335Z,84
2024-01-20T07:25:24.299Z,84
2024-01-20T07:40:24.334Z,84
2024-01-20T07:55:24.274Z,84
2024-01-20T08:10:24.345Z,84
2024-01-20T08:25:24.348Z,84
2024-01-20T08:40:24.359Z,83
2024-01-20T08:55:24.287Z,83
2024-01-20T09:10:24.281Z,83
2024-01-20T09:25:24.240Z,83
2024-01-20T09:40:24.269Z,83
2024-01-20T09:55:24.263Z,83
2024-01-20T10:10:24.258Z,82
2024-01-20T10:25:24.219Z,82
2024-01-20T10:40:24.239Z,82
2024-01-20T10:55:24.224Z,82
2024-01-20T11:10:24.240Z,83
2024-01-20T11:25:24.195Z,82
2024-01-20T11:40:24.227Z,81
2024-01-20T11:55:24.226Z,81
2024-01-20T12:10:24.191Z,80
2024-01-20T12:25:24.168Z,79
2024-01-20T12:40:24.228Z,78
2024-01-20T12:55:24.166Z,78
2024-01-20T13:10:24.172Z,77
2024-01-20T13:25:25.971Z,77
2024-01-20T13:40:24.184Z,77
2024-01-20T13:55:24.110Z,76
2024-01-20T14:10:24.105Z,75
2024-01-20T14:25:24.125Z,75
2024-01-20T14:40:24.072Z,75
2024-01-20T14:55:24.082Z,75
2024-01-20T15:10:24.131Z,75
2024-01-20T15:25:24.078Z,75
2024-01-20T15:40:24.089Z,75
2024-01-20T15:55:24.020Z,75
2024-01-20T16:10:24.044Z,75
2024-01-20T16:25:24.026Z,75
2024-01-20T16:40:24.031Z,76
2024-01-20T16:55:24.000Z,76
2024-01-20T17:10:24.073Z,76
2024-01-20T17:25:23.948Z,77
2024-01-20T17:40:23.998Z,77
2024-01-20T17:55:23.940Z,77
2024-01-20T18:10:23.994Z,77
2024-01-20T18:25:23.964Z,78
2024-01-20T18:40:23.959Z,78
2024-01-20T18:55:23.948Z,78
2024-01-20T19:10:24.013Z,79
2024-01-20T19:25:23.931Z,79
2024-01-20T19:40:23.929Z,79
2024-01-20T19:55:23.926Z,79
2024-01-20T20:10:23.953Z,80
2024-01-20T20:25:23.923Z,80
2024-01-20T20:40:23.934Z,80
2024-01-20T20:55:23.890Z,80
2024-01-20T21:10:23.954Z,80
2024-01-20T21:25:27.179Z,81
2024-01-20T21:40:23.896Z,81
2024-01-20T21:55:23.879Z,82
2024-01-20T22:10:23.900Z,82
2024-01-20T22:25:24.004Z,82
2024-01-20T22:40:23.874Z,83
2024-01-20T22:55:23.963Z,83
2024-01-20T23:10:23.907Z,83
2024-01-20T23:25:23.854Z,83
2024-01-20T23:40:23.896Z,83
2024-01-20T23:55:23.877Z,84
